createdAt,value
2019-02-11T00:02:01.794Z,74.51
2019-02-11T00:06:06.006Z,74.39
2019-02-11T00:10:10.227Z,73.15
2019-02-11T00:14:14.783Z,72.58
2019-02-11T00:18:19.115Z,72.35
2019-02-11T00:22:23.405Z,71.21
2019-02-11T00:26:27.653Z,71.15
2019-02-11T00:30:31.874Z,70.05
2019-02-11T00:34:36.454Z,70.11
2019-02-11T00:38:40.654Z,69.44
2019-02-11T00:42:44.881Z,69.35
2019-02-11T00:46:49.091Z,69.08
2019-02-11T00:50:53.309Z,68.05
2019-02-11T00:54:58.909Z,67.93
2019-02-11T00:59:03.085Z,67.44
2019-02-11T01:03:07.369Z,67.48
2019-02-11T01:07:11.896Z,67.37
2019-02-11T01:11:16.423Z,67.03
2019-02-11T01:15:20.654Z,66.47
2019-02-11T01:19:24.867Z,66.60
2019-02-11T01:23:29.142Z,66.67
2019-02-11T01:27:33.349Z,66.77
2019-02-11T01:31:37.566Z,64.93
2019-02-11T01:35:42.067Z,65.58
2019-02-11T01:39:46.355Z,65.67
2019-02-11T01:43:50.598Z,65.38
2019-02-11T01:47:55.174Z,64.47
2019-02-11T01:51:59.429Z,65.23
2019-02-11T01:56:04.046Z,64.63
2019-02-11T02:00:11.643Z,64.07
2019-02-11T02:04:15.863Z,63.36
2019-02-11T02:08:20.177Z,63.37
2019-02-11T02:12:24.644Z,62.68
2019-02-11T02:16:28.871Z,62.76
2019-02-11T02:20:33.095Z,63.17
2019-02-11T02:24:37.284Z,62.68
2019-02-11T02:28:41.793Z,62.75
2019-02-11T02:32:45.993Z,62.42
2019-02-11T02:36:50.595Z,62.68
2019-02-11T02:40:54.914Z,61.62
2019-02-11T02:44:59.105Z,62.05
2019-02-11T02:49:03.334Z,62.20
2019-02-11T02:53:07.566Z,61.95
2019-02-11T02:57:11.862Z,61.69
2019-02-11T03:01:16.049Z,61.56
2019-02-11T03:05:20.263Z,61.68
2019-02-11T03:09:24.452Z,60.48
2019-02-11T03:13:28.766Z,60.19
2019-02-11T03:17:32.952Z,60.61
2019-02-11T03:21:37.185Z,60.02
2019-02-11T03:25:41.447Z,59.70
2019-02-11T03:29:45.674Z,59.57
2019-02-11T03:33:52.010Z,59.69
2019-02-11T03:37:56.356Z,59.60
2019-02-11T03:42:01.439Z,60.03
2019-02-11T03:46:05.710Z,59.92
2019-02-11T03:50:10.753Z,59.07
2019-02-11T03:54:14.995Z,59.89
2019-02-11T03:58:19.671Z,59.89
2019-02-11T04:02:24.059Z,59.74
2019-02-11T04:06:28.466Z,59.54
2019-02-11T04:10:34.116Z,59.10
2019-02-11T04:14:38.578Z,59.93
2019-02-11T04:18:43.261Z,59.32
2019-02-11T04:22:48.290Z,59.45
2019-02-11T04:26:52.782Z,59.11
2019-02-11T04:30:57.249Z,59.62
2019-02-11T04:35:03.250Z,59.76
2019-02-11T04:39:08.123Z,59.59
2019-02-11T04:43:20.356Z,59.46
2019-02-11T04:47:24.627Z,59.68
2019-02-11T04:51:29.099Z,59.72
2019-02-11T04:55:33.552Z,59.81
2019-02-11T04:59:38.019Z,59.47
2019-02-11T05:03:42.356Z,59.33
2019-02-11T05:07:46.906Z,59.51
2019-02-11T05:11:51.597Z,59.63
2019-02-11T05:15:56.006Z,59.17
2019-02-11T05:20:00.598Z,59.61
2019-02-11T05:24:04.988Z,59.49
2019-02-11T05:28:09.774Z,59.01
2019-02-11T05:32:14.399Z,59.28
2019-02-11T05:36:18.851Z,59.37
2019-02-11T05:40:23.257Z,58.90
2019-02-11T05:44:27.751Z,59.04
2019-02-11T05:48:32.329Z,59.30
2019-02-11T05:52:36.704Z,59.47
2019-02-11T05:56:41.199Z,59.67
2019-02-11T06:00:45.542Z,59.65
2019-02-11T06:04:50.423Z,59.35
2019-02-11T06:08:54.975Z,59.99
2019-02-11T06:12:59.317Z,60.01
2019-02-11T06:17:04.006Z,59.90
2019-02-11T06:21:10.176Z,59.85
2019-02-11T06:25:16.320Z,59.70
2019-02-11T06:29:21.100Z,59.78
2019-02-11T06:33:30.951Z,59.93
2019-02-11T06:37:35.665Z,59.89
2019-02-11T06:41:41.066Z,59.88
2019-02-11T06:45:46.850Z,60.01
2019-02-11T06:49:52.831Z,59.76
2019-02-11T06:53:57.270Z,59.86
2019-02-11T06:58:02.258Z,59.98
2019-02-11T07:02:06.677Z,60.15
2019-02-11T07:06:16.714Z,60.30
2019-02-11T07:10:21.299Z,59.97
2019-02-11T07:14:28.806Z,60.17
2019-02-11T07:18:40.833Z,60.13
2019-02-11T07:22:45.449Z,60.07
2019-02-11T07:26:50.587Z,59.76
2019-02-11T07:30:55.341Z,60.10
2019-02-11T07:35:00.030Z,60.15
2019-02-11T07:39:10.081Z,60.02
2019-02-11T07:43:39.279Z,59.84
2019-02-11T07:47:44.206Z,59.81
2019-02-11T07:51:48.913Z,60.05
2019-02-11T07:55:53.680Z,60.04
2019-02-11T07:59:58.357Z,59.96
2019-02-11T08:04:02.894Z,60.04
2019-02-11T08:08:07.657Z,59.89
2019-02-11T08:12:13.754Z,59.77
2019-02-11T08:16:21.314Z,59.70
2019-02-11T08:20:27.165Z,59.77
2019-02-11T08:24:33.418Z,59.23
2019-02-11T08:28:41.342Z,59.23
2019-02-11T08:32:46.419Z,59.30
2019-02-11T08:37:05.745Z,58.97
2019-02-11T08:41:12.140Z,58.77
2019-02-11T08:45:17.490Z,59.11
2019-02-11T08:49:23.673Z,59.07
2019-02-11T08:53:28.619Z,58.87
2019-02-11T08:57:33.537Z,59.07
2019-02-11T09:01:38.648Z,59.08
2019-02-11T09:05:46.354Z,59.58
2019-02-11T09:09:52.989Z,59.83
2019-02-11T09:14:12.827Z,59.94
2019-02-11T09:18:20.776Z,59.83
2019-02-11T09:22:25.612Z,60.04
2019-02-11T09:26:33.329Z,59.60
2019-02-11T09:30:45.542Z,60.17
2019-02-11T09:34:50.742Z,60.05
2019-02-11T09:39:01.432Z,60.32
2019-02-11T09:43:16.987Z,59.86
2019-02-11T09:47:25.609Z,59.66
2019-02-11T09:51:30.914Z,59.82
2019-02-11T09:55:40.046Z,59.74
2019-02-11T09:59:45.402Z,59.74
2019-02-11T10:04:07.747Z,59.88
2019-02-11T10:12:31.780Z,60.04
2019-02-11T10:16:43.597Z,60.02
2019-02-11T10:21:23.377Z,58.83
2019-02-11T10:25:29.506Z,57.78
2019-02-11T10:29:33.691Z,58.21
2019-02-11T10:33:37.933Z,58.15
2019-02-11T10:37:42.160Z,58.30
2019-02-11T10:41:46.377Z,57.67
2019-02-11T10:45:50.605Z,57.04
2019-02-11T10:49:54.824Z,55.61
2019-02-11T10:53:59.322Z,54.35
2019-02-11T10:58:03.542Z,54.72
2019-02-11T11:02:07.780Z,55.28
2019-02-11T11:06:12.014Z,55.02
2019-02-11T11:10:21.791Z,53.70
2019-02-11T11:14:25.995Z,54.48
2019-02-11T11:22:32.574Z,54.94
2019-02-11T11:26:36.751Z,54.32
2019-02-11T11:30:41.168Z,54.94
2019-02-11T11:34:45.401Z,54.87
2019-02-11T11:38:49.619Z,55.34
2019-02-11T11:42:53.816Z,54.59
2019-02-11T11:46:58.416Z,54.85
2019-02-11T11:51:03.332Z,54.58
2019-02-11T11:55:09.561Z,55.10
2019-02-11T11:59:13.833Z,55.02
2019-02-11T12:03:18.165Z,54.38
2019-02-11T12:07:22.475Z,54.28
2019-02-11T12:11:27.343Z,54.95
2019-02-11T12:15:31.557Z,54.22
2019-02-11T12:19:35.865Z,54.48
2019-02-11T12:23:40.056Z,54.72
2019-02-11T12:27:44.405Z,54.54
2019-02-11T12:31:48.653Z,54.84
2019-02-11T12:35:53.044Z,54.75
2019-02-11T12:39:57.277Z,54.46
2019-02-11T12:44:01.560Z,53.48
2019-02-11T12:48:05.846Z,53.91
2019-02-11T12:52:10.230Z,53.52
2019-02-11T12:56:14.766Z,53.05
2019-02-11T13:00:21.154Z,53.20
2019-02-11T13:04:25.397Z,53.55
2019-02-11T13:08:29.665Z,53.35
2019-02-11T13:12:33.866Z,52.97
2019-02-11T13:16:38.190Z,53.35
2019-02-11T13:20:42.463Z,52.90
2019-02-11T13:24:47.112Z,53.08
2019-02-11T13:28:51.339Z,52.70
2019-02-11T13:32:55.687Z,52.57
2019-02-11T13:37:00.392Z,51.51
2019-02-11T13:41:04.689Z,51.90
2019-02-11T13:45:12.749Z,51.65
2019-02-11T13:49:17.620Z,52.08
2019-02-11T13:53:22.200Z,51.80
2019-02-11T13:57:26.630Z,52.09
2019-02-11T14:01:30.950Z,51.41
2019-02-11T14:05:35.302Z,51.24
2019-02-11T14:09:39.542Z,51.25
2019-02-11T14:14:00.577Z,51.20
2019-02-11T14:18:09.551Z,51.57
2019-02-11T14:21:56.535Z,51.70
2019-02-11T14:26:01.033Z,51.58
2019-02-11T14:30:05.637Z,51.67
2019-02-11T14:34:10.986Z,51.18
2019-02-11T14:38:15.494Z,51.51
2019-02-11T14:42:19.848Z,51.23
2019-02-11T14:46:24.163Z,51.36
2019-02-11T14:50:28.389Z,51.30
2019-02-11T14:54:33.030Z,51.33
2019-02-11T14:58:37.277Z,51.96
2019-02-11T15:02:41.492Z,51.74
2019-02-11T15:06:45.710Z,51.81
2019-02-11T15:10:49.945Z,52.05
2019-02-11T15:14:54.160Z,51.79
2019-02-11T15:18:58.727Z,52.16
2019-02-11T15:23:02.937Z,51.86
2019-02-11T15:27:07.255Z,52.21
2019-02-11T15:31:11.458Z,52.50
2019-02-11T15:35:15.923Z,52.80
2019-02-11T15:39:20.387Z,53.05
2019-02-11T15:43:24.595Z,53.23
2019-02-11T15:47:28.816Z,52.87
2019-02-11T15:51:33.993Z,52.79
2019-02-11T15:55:38.221Z,52.57
2019-02-11T15:59:42.423Z,54.59
2019-02-11T16:03:46.643Z,55.62
2019-02-11T16:07:50.919Z,56.35
2019-02-11T16:11:55.736Z,56.11
2019-02-11T16:16:00.014Z,56.17
2019-02-11T16:20:04.277Z,55.59
2019-02-11T16:24:08.487Z,55.61
2019-02-11T16:28:12.704Z,55.86
2019-02-11T16:32:17.341Z,55.71
2019-02-11T16:36:21.536Z,55.10
2019-02-11T16:40:27.078Z,55.86
2019-02-11T16:44:31.298Z,56.08
2019-02-11T16:48:35.588Z,56.22
2019-02-11T16:52:39.908Z,56.72
2019-02-11T16:56:44.521Z,57.00
2019-02-11T17:00:48.775Z,57.30
2019-02-11T17:04:53.298Z,57.44
2019-02-11T17:08:57.884Z,57.65
2019-02-11T17:13:02.099Z,57.94
2019-02-11T17:17:06.342Z,57.83
2019-02-11T17:21:10.503Z,58.36
2019-02-11T17:25:14.950Z,58.18
2019-02-11T17:29:19.385Z,57.96
2019-02-11T17:33:24.031Z,57.79
2019-02-11T17:37:28.218Z,58.03
2019-02-11T17:41:32.412Z,57.92
2019-02-11T17:45:36.719Z,57.90
2019-02-11T17:49:40.891Z,57.75
2019-02-11T17:53:45.130Z,57.46
2019-02-11T17:57:49.401Z,57.50
2019-02-11T18:01:54.913Z,57.73
2019-02-11T18:06:00.790Z,57.81
2019-02-11T18:10:05.939Z,57.93
2019-02-11T18:14:10.184Z,57.81
2019-02-11T18:18:14.471Z,57.89
2019-02-11T18:22:19.187Z,57.90
2019-02-11T18:26:23.466Z,58.00
2019-02-11T18:30:27.678Z,57.93
2019-02-11T18:34:32.069Z,58.36
2019-02-11T18:38:36.292Z,58.40
2019-02-11T18:42:40.507Z,58.54
2019-02-11T18:46:44.780Z,58.48
2019-02-11T18:50:49.022Z,58.61
2019-02-11T18:54:53.507Z,58.68
2019-02-11T18:58:58.081Z,58.88
2019-02-11T19:03:02.411Z,58.83
2019-02-11T19:07:07.089Z,58.66
2019-02-11T19:15:15.181Z,58.57
2019-02-11T19:19:19.498Z,58.58
2019-02-11T19:23:24.040Z,58.61
2019-02-11T19:27:28.280Z,58.90
2019-02-11T19:31:32.543Z,58.97
2019-02-11T19:35:37.207Z,59.01
2019-02-11T19:39:41.469Z,59.24
2019-02-11T19:43:45.892Z,59.42
2019-02-11T19:47:50.134Z,59.62
2019-02-11T19:51:54.327Z,59.65
2019-02-11T19:55:58.586Z,59.80
2019-02-11T20:00:03.017Z,59.76
2019-02-11T20:04:08.008Z,59.78
2019-02-11T20:08:12.581Z,59.84
2019-02-11T20:12:16.805Z,59.93
2019-02-11T20:21:24.216Z,60.19
2019-02-11T20:25:28.559Z,60.37
2019-02-11T20:29:32.821Z,60.47
2019-02-11T20:33:37.098Z,60.61
2019-02-11T20:37:41.589Z,60.93
2019-02-11T20:41:45.845Z,60.96
2019-02-11T20:45:50.175Z,61.40
2019-02-11T20:49:54.516Z,62.38
2019-02-11T20:53:58.730Z,62.86
2019-02-11T20:58:02.950Z,63.31
2019-02-11T21:02:07.619Z,63.24
2019-02-11T21:06:11.835Z,63.32
2019-02-11T21:10:17.221Z,63.36
2019-02-11T21:14:21.444Z,63.38
2019-02-11T21:18:25.669Z,63.14
2019-02-11T21:22:30.295Z,63.71
2019-02-11T21:26:34.528Z,63.47
2019-02-11T21:30:38.740Z,63.34
2019-02-11T21:34:42.973Z,63.25
2019-02-11T21:38:47.243Z,63.39
2019-02-11T21:42:51.471Z,63.67
2019-02-11T21:46:55.684Z,63.42
2019-02-11T21:50:59.904Z,63.06
2019-02-11T21:55:04.124Z,62.62
2019-02-11T21:59:08.300Z,62.23
2019-02-11T22:03:12.555Z,61.42
2019-02-11T22:07:16.807Z,61.13
2019-02-11T22:11:21.027Z,61.01
2019-02-11T22:15:26.596Z,60.95
2019-02-11T22:19:30.808Z,60.68
2019-02-11T22:23:35.032Z,60.79
2019-02-11T22:27:39.232Z,61.00
2019-02-11T22:31:43.452Z,61.00
2019-02-11T22:35:47.708Z,60.96
2019-02-11T22:39:51.888Z,60.98
2019-02-11T22:43:56.135Z,60.64
2019-02-11T22:48:00.360Z,60.62
2019-02-11T22:52:04.544Z,59.97
2019-02-11T22:56:08.762Z,59.65
2019-02-11T23:00:39.977Z,59.60
2019-02-11T23:04:44.225Z,59.44
2019-02-11T23:08:48.401Z,59.02
2019-02-11T23:12:52.618Z,58.69
2019-02-11T23:16:56.827Z,59.26
2019-02-11T23:21:02.033Z,58.90
2019-02-11T23:25:06.231Z,58.94
2019-02-11T23:29:10.445Z,58.96
2019-02-11T23:33:14.666Z,59.05
2019-02-11T23:37:18.872Z,59.24
2019-02-11T23:41:23.082Z,58.95
2019-02-11T23:45:27.250Z,59.21
2019-02-11T23:49:31.463Z,59.32
2019-02-11T23:53:35.629Z,59.29
2019-02-11T23:57:39.873Z,59.46
